Time;durP1;ratioP1;P1;durP2;ratioP2;P2;SDS_P1;SDS_P2;PMS_P1;PMS_P2;Temp;Humidity;BMP_temperature;BMP_pressure;BME280_temperature;BME280_humidity;BME280_pressure;Samples;Min_cycle;Max_cycle;Signal;HPM_P1;HPM_P2
2023/09/20 00:01:43;;;;;;;19.38;7.70;;;16.00;84.80;;;;;;5030658;28;20353;-65
2023/09/20 00:04:09;;;;;;;17.55;7.50;;;16.00;84.90;;;;;;5031006;28;20084;-65
2023/09/20 00:06:35;;;;;;;20.15;7.93;;;15.90;85.00;;;;;;5041937;28;20061;-65
2023/09/20 00:09:02;;;;;;;15.98;6.75;;;15.90;85.00;;;;;;5012367;28;20385;-65
2023/09/20 00:11:28;;;;;;;17.30;7.63;;;15.90;85.20;;;;;;5030085;28;20125;-65
2023/09/20 00:13:54;;;;;;;17.13;7.00;;;15.90;85.30;;;;;;5030357;28;20495;-66
2023/09/20 00:16:19;;;;;;;18.90;7.18;;;15.90;85.40;;;;;;5030226;28;20060;-65
2023/09/20 00:18:45;;;;;;;17.65;7.03;;;15.90;85.50;;;;;;5029913;28;20092;-65
2023/09/20 00:21:11;;;;;;;24.55;7.47;;;15.80;85.60;;;;;;5021618;28;20048;-65
2023/09/20 00:23:37;;;;;;;15.18;7.28;;;15.90;85.70;;;;;;5030134;28;20466;-67
2023/09/20 00:26:03;;;;;;;16.33;7.50;;;15.90;85.80;;;;;;5012578;28;20045;-66
2023/09/20 00:28:31;;;;;;;16.90;7.15;;;15.90;85.80;;;;;;5029238;28;20420;-66
2023/09/20 00:30:57;;;;;;;19.60;8.45;;;15.90;85.90;;;;;;5029956;28;20049;-66
2023/09/20 00:33:23;;;;;;;19.00;7.53;;;15.80;86.00;;;;;;5029098;28;20046;-65
2023/09/20 00:35:49;;;;;;;20.27;7.47;;;15.80;86.00;;;;;;5029871;28;20408;-65
2023/09/20 00:38:16;;;;;;;17.83;7.55;;;15.80;86.00;;;;;;5029846;28;20052;-66
2023/09/20 00:40:43;;;;;;;18.27;7.20;;;15.80;85.90;;;;;;5029550;28;20045;-64
2023/09/20 00:43:11;;;;;;;19.75;7.57;;;15.80;85.90;;;;;;5012668;28;20045;-68
2023/09/20 00:45:40;;;;;;;13.98;7.20;;;15.80;86.00;;;;;;5029999;28;20519;-67
2023/09/20 00:48:07;;;;;;;16.42;6.93;;;15.90;85.90;;;;;;5029934;28;20491;-67
2023/09/20 00:50:41;;;;;;;18.38;6.65;;;15.90;85.90;;;;;;5029113;28;20496;-65
2023/09/20 00:53:07;;;;;;;14.82;6.50;;;16.00;85.70;;;;;;5030042;28;20049;-65
2023/09/20 00:55:35;;;;;;;17.17;6.53;;;16.00;85.60;;;;;;5030165;28;20053;-65
2023/09/20 00:58:12;;;;;;;17.40;6.78;;;16.00;85.50;;;;;;5029296;28;20085;-65
2023/09/20 01:00:40;;;;;;;16.20;6.20;;;16.00;85.30;;;;;;5028638;28;20053;-66
2023/09/20 01:03:06;;;;;;;17.73;6.43;;;16.10;85.20;;;;;;5028975;28;20049;-65
2023/09/20 01:05:39;;;;;;;20.13;6.95;;;16.10;85.20;;;;;;5029327;28;20049;-66
2023/09/20 01:08:06;;;;;;;16.52;6.10;;;16.10;85.20;;;;;;5029978;28;20045;-66
2023/09/20 01:10:33;;;;;;;16.77;6.82;;;16.10;85.00;;;;;;5029345;28;20633;-65
2023/09/20 01:13:02;;;;;;;18.17;6.22;;;16.10;84.80;;;;;;5029342;28;20081;-65
2023/09/20 01:15:29;;;;;;;22.10;7.25;;;16.20;84.70;;;;;;5029925;28;20115;-67
2023/09/20 01:17:57;;;;;;;22.58;7.40;;;16.20;84.70;;;;;;5029606;28;20120;-66
2023/09/20 01:20:26;;;;;;;20.25;7.20;;;16.20;84.70;;;;;;5029218;28;20064;-66
2023/09/20 01:22:59;;;;;;;17.88;7.10;;;16.20;84.60;;;;;;5030071;28;20152;-66
2023/09/20 01:25:31;;;;;;;17.83;7.63;;;16.20;84.60;;;;;;5011597;28;20049;-67
2023/09/20 01:28:05;;;;;;;18.73;7.35;;;16.20;84.70;;;;;;5028960;28;20053;-65
2023/09/20 01:30:33;;;;;;;26.38;8.00;;;16.20;84.70;;;;;;5028582;28;20496;-66
2023/09/20 01:33:01;;;;;;;24.55;8.27;;;16.20;84.90;;;;;;5011623;28;20060;-65
2023/09/20 01:35:28;;;;;;;26.02;8.50;;;16.10;85.00;;;;;;5028943;28;20386;-66
2023/09/20 01:37:55;;;;;;;21.33;8.05;;;16.10;85.10;;;;;;5028835;28;20134;-65
2023/09/20 01:40:28;;;;;;;21.65;7.75;;;16.00;85.20;;;;;;5029414;28;20057;-66
2023/09/20 01:42:58;;;;;;;18.42;7.80;;;16.00;85.10;;;;;;5029298;28;20124;-67
2023/09/20 01:45:24;;;;;;;20.75;7.53;;;16.00;85.10;;;;;;5029211;28;20045;-67
2023/09/20 01:48:00;;;;;;;18.80;7.10;;;16.00;85.30;;;;;;5029413;28;20176;-66
2023/09/20 01:50:27;;;;;;;15.98;7.30;;;16.00;85.20;;;;;;5029373;28;20531;-66
2023/09/20 01:52:57;;;;;;;17.65;7.15;;;16.00;85.20;;;;;;5028740;28;20515;-67
2023/09/20 01:55:27;;;;;;;18.63;7.45;;;16.00;85.20;;;;;;5028402;28;20050;-66
2023/09/20 01:57:56;;;;;;;23.98;7.68;;;16.00;85.20;;;;;;5034426;28;20117;-66
2023/09/20 02:00:29;;;;;;;16.58;7.40;;;16.00;85.00;;;;;;5027843;28;20427;-64
2023/09/20 02:02:57;;;;;;;21.58;7.13;;;16.00;85.00;;;;;;5030449;28;20457;-66
2023/09/20 02:05:23;;;;;;;14.73;6.30;;;16.00;85.00;;;;;;5014694;28;20053;-66
2023/09/20 02:07:51;;;;;;;17.83;6.50;;;16.00;84.90;;;;;;5032251;28;20045;-65
2023/09/20 02:10:17;;;;;;;20.15;6.40;;;16.00;85.00;;;;;;5031533;28;20496;-65
2023/09/20 02:12:53;;;;;;;19.98;6.57;;;16.00;84.90;;;;;;5032607;28;20045;-65
2023/09/20 02:18:05;;;;;;;16.25;6.45;;;16.00;84.80;;;;;;5027533;22;20405;-67
2023/09/20 02:20:34;;;;;;;17.38;6.10;;;16.00;84.80;;;;;;4995688;28;20543;-66
2023/09/20 02:23:00;;;;;;;17.95;4.93;;;16.00;84.70;;;;;;4987035;28;20101;-66
2023/09/20 02:25:26;;;;;;;16.23;6.20;;;16.00;84.60;;;;;;4980164;28;20046;-65
2023/09/20 02:27:57;;;;;;;19.58;6.32;;;16.00;84.50;;;;;;4993893;28;20115;-65
2023/09/20 02:30:34;;;;;;;19.42;6.45;;;16.00;84.40;;;;;;4993272;28;20050;-66
2023/09/20 02:33:00;;;;;;;14.88;5.25;;;16.10;84.30;;;;;;4992700;28;20050;-67
2023/09/20 02:35:27;;;;;;;14.00;6.18;;;16.10;84.30;;;;;;4988216;28;20105;-65
2023/09/20 02:37:54;;;;;;;14.82;5.38;;;16.10;84.30;;;;;;4974364;28;20043;-66
2023/09/20 02:40:23;;;;;;;15.18;5.47;;;16.10;84.20;;;;;;4993185;28;20103;-65
2023/09/20 02:42:59;;;;;;;14.50;5.75;;;16.10;84.30;;;;;;4993548;28;20081;-65
2023/09/20 02:45:29;;;;;;;17.52;5.35;;;16.10;84.20;;;;;;4975419;28;20046;-65
2023/09/20 02:47:55;;;;;;;20.77;6.10;;;16.10;84.20;;;;;;4992355;28;20050;-66
2023/09/20 02:50:23;;;;;;;21.25;6.57;;;16.10;84.10;;;;;;4990640;28;20050;-65
2023/09/20 02:52:52;;;;;;;16.67;5.70;;;16.10;84.10;;;;;;4998788;28;20057;-66
2023/09/20 02:55:20;;;;;;;21.50;6.18;;;16.10;84.00;;;;;;4980497;28;20051;-66
2023/09/20 02:57:52;;;;;;;18.20;6.18;;;16.10;83.90;;;;;;4991912;28;20125;-65
2023/09/20 03:00:21;;;;;;;13.18;6.50;;;16.10;83.80;;;;;;4992507;28;20486;-65
2023/09/20 03:02:55;;;;;;;16.95;6.10;;;16.10;83.60;;;;;;4979701;28;20042;-66
2023/09/20 03:05:27;;;;;;;17.30;6.00;;;16.10;83.60;;;;;;4992656;28;20054;-66
2023/09/20 03:07:55;;;;;;;14.25;5.32;;;16.10;83.50;;;;;;4992888;28;20080;-67
2023/09/20 03:10:22;;;;;;;14.02;5.57;;;16.10;83.50;;;;;;4992496;28;20046;-66
2023/09/20 03:12:53;;;;;;;14.55;5.53;;;16.10;83.30;;;;;;4990172;28;20061;-66
2023/09/20 03:15:23;;;;;;;16.38;6.35;;;16.10;83.30;;;;;;4971776;28;20426;-66
2023/09/20 03:17:54;;;;;;;15.88;5.88;;;16.10;83.40;;;;;;4973201;28;20050;-66
2023/09/20 03:20:23;;;;;;;17.05;5.70;;;16.10;83.40;;;;;;4984080;28;20081;-67
2023/09/20 03:22:51;;;;;;;14.77;5.05;;;16.10;83.30;;;;;;4992643;28;20472;-65
2023/09/20 03:25:24;;;;;;;12.57;4.35;;;16.20;83.30;;;;;;4995011;28;20093;-66
2023/09/20 03:27:50;;;;;;;14.75;5.40;;;16.20;83.20;;;;;;4992103;28;20050;-67
2023/09/20 03:30:17;;;;;;;13.90;5.53;;;16.20;83.20;;;;;;4991745;28;20069;-66
2023/09/20 03:32:47;;;;;;;17.92;5.43;;;16.20;83.20;;;;;;4992329;28;20076;-65
2023/09/20 03:35:14;;;;;;;16.88;5.63;;;16.20;83.00;;;;;;4989634;28;20057;-65
2023/09/20 03:37:41;;;;;;;13.43;4.45;;;16.30;83.10;;;;;;4963964;28;20050;-65
2023/09/20 03:40:16;;;;;;;14.57;5.03;;;16.30;83.00;;;;;;4992365;28;20402;-66
2023/09/20 03:42:42;;;;;;;12.55;5.53;;;16.30;83.00;;;;;;4991931;28;20249;-66
2023/09/20 03:45:10;;;;;;;15.38;5.20;;;16.30;83.00;;;;;;4988906;28;20065;-66
2023/09/20 03:47:40;;;;;;;12.82;5.22;;;16.30;83.00;;;;;;4977041;28;20054;-66
2023/09/20 03:50:09;;;;;;;14.10;4.95;;;16.30;82.90;;;;;;4978940;28;20042;-66
2023/09/20 03:52:42;;;;;;;12.48;4.50;;;16.20;82.90;;;;;;4992034;28;20074;-66
2023/09/20 03:55:07;;;;;;;10.13;4.75;;;16.20;82.80;;;;;;5003140;28;20544;-66
2023/09/20 03:57:34;;;;;;;14.93;4.78;;;16.30;82.80;;;;;;4991659;28;20042;-67
2023/09/20 04:00:00;;;;;;;15.65;4.85;;;16.20;82.80;;;;;;4991786;28;20571;-66
2023/09/20 04:02:28;;;;;;;14.10;4.85;;;16.30;82.80;;;;;;4991481;28;20506;-67
2023/09/20 04:04:55;;;;;;;14.18;5.05;;;16.20;82.80;;;;;;4974566;28;20074;-66
2023/09/20 04:07:26;;;;;;;13.95;5.00;;;16.20;82.60;;;;;;4991351;28;20073;-65
2023/09/20 04:09:52;;;;;;;16.23;6.57;;;16.20;82.60;;;;;;4979857;28;20173;-66
2023/09/20 04:12:18;;;;;;;16.20;6.22;;;16.20;82.60;;;;;;4980279;28;20524;-66
2023/09/20 04:14:43;;;;;;;15.32;5.72;;;16.20;82.60;;;;;;4972186;28;20047;-66
2023/09/20 04:17:09;;;;;;;17.30;5.32;;;16.20;82.60;;;;;;4986139;28;20045;-66
2023/09/20 04:19:39;;;;;;;16.52;5.70;;;16.20;82.50;;;;;;4985602;28;20124;-67
2023/09/20 04:22:10;;;;;;;14.77;5.22;;;16.20;82.30;;;;;;4978784;28;20093;-65
2023/09/20 04:24:36;;;;;;;12.73;5.60;;;16.20;82.20;;;;;;4989963;28;20062;-64
2023/09/20 04:27:04;;;;;;;14.13;5.43;;;16.20;82.00;;;;;;4986937;28;20061;-65
2023/09/20 04:29:31;;;;;;;14.90;5.22;;;16.20;82.00;;;;;;4990753;28;20057;-66
2023/09/20 04:31:57;;;;;;;11.90;5.30;;;16.20;81.70;;;;;;4984006;28;20497;-66
2023/09/20 04:34:23;;;;;;;13.55;5.35;;;16.20;81.80;;;;;;4981987;28;20054;-66
2023/09/20 04:36:51;;;;;;;15.77;4.68;;;16.20;81.70;;;;;;4990720;28;20054;-66
2023/09/20 04:39:17;;;;;;;18.13;5.50;;;16.20;81.60;;;;;;4991185;28;20151;-66
2023/09/20 04:41:43;;;;;;;16.52;6.10;;;16.10;81.60;;;;;;4990607;28;20078;-65
2023/09/20 04:44:09;;;;;;;16.35;5.70;;;16.10;81.50;;;;;;4991330;28;20042;-66
2023/09/20 04:46:39;;;;;;;15.73;5.68;;;16.10;81.60;;;;;;4990690;28;20061;-65
2023/09/20 04:49:06;;;;;;;15.60;5.43;;;16.00;81.50;;;;;;4990770;28;20092;-66
2023/09/20 04:51:32;;;;;;;13.45;5.97;;;16.00;81.50;;;;;;4980447;28;20521;-66
2023/09/20 04:53:59;;;;;;;16.02;5.63;;;16.00;81.60;;;;;;4983961;28;20477;-67
2023/09/20 04:56:26;;;;;;;17.48;5.97;;;16.00;81.50;;;;;;4974968;28;20412;-66
2023/09/20 04:58:52;;;;;;;16.00;5.90;;;15.90;81.50;;;;;;4989094;28;20057;-65
2023/09/20 05:01:18;;;;;;;16.90;6.20;;;15.80;81.50;;;;;;4973958;28;20549;-65
2023/09/20 05:03:44;;;;;;;14.07;5.57;;;15.80;81.60;;;;;;4979054;28;20097;-66
2023/09/20 05:06:09;;;;;;;14.43;5.35;;;15.80;81.50;;;;;;4983513;28;20134;-66
2023/09/20 05:08:36;;;;;;;16.55;5.65;;;15.80;81.70;;;;;;4981112;28;20047;-67
2023/09/20 05:11:04;;;;;;;17.45;5.57;;;15.70;81.60;;;;;;4986543;28;20082;-65
2023/09/20 05:13:30;;;;;;;14.18;5.25;;;15.70;81.60;;;;;;4984343;28;20053;-67
2023/09/20 05:15:56;;;;;;;16.95;5.60;;;15.60;81.60;;;;;;4960932;28;20046;-66
2023/09/20 05:18:22;;;;;;;15.43;5.30;;;15.60;81.60;;;;;;4980973;28;20050;-66
2023/09/20 05:20:49;;;;;;;14.15;5.07;;;15.60;81.70;;;;;;4982994;28;20125;-66
2023/09/20 05:23:15;;;;;;;19.80;5.55;;;15.60;81.70;;;;;;4988221;28;20140;-66
2023/09/20 05:25:40;;;;;;;15.23;5.47;;;15.60;81.80;;;;;;4992961;28;20125;-66
2023/09/20 05:28:06;;;;;;;16.15;5.57;;;15.50;82.00;;;;;;4990159;28;20089;-64
2023/09/20 05:30:33;;;;;;;15.27;5.20;;;15.50;81.90;;;;;;4990252;28;20109;-68
2023/09/20 05:32:59;;;;;;;19.92;5.72;;;15.50;82.00;;;;;;4994499;28;20061;-67
2023/09/20 05:35:28;;;;;;;13.98;5.57;;;15.50;82.00;;;;;;4985743;28;20054;-66
2023/09/20 05:37:54;;;;;;;18.52;5.55;;;15.50;81.90;;;;;;4973783;28;20130;-64
2023/09/20 05:40:21;;;;;;;14.07;4.82;;;15.50;81.90;;;;;;4988203;28;20125;-66
2023/09/20 05:42:47;;;;;;;14.38;4.85;;;15.50;82.00;;;;;;4990662;28;20050;-65
2023/09/20 05:45:14;;;;;;;13.60;5.28;;;15.50;81.80;;;;;;4991505;28;20054;-66
2023/09/20 05:47:40;;;;;;;13.85;5.00;;;15.50;81.80;;;;;;4991187;28;20077;-67
2023/09/20 05:50:14;;;;;;;16.25;5.15;;;15.50;81.90;;;;;;4991131;28;20065;-64
2023/09/20 05:52:48;;;;;;;13.70;5.10;;;15.40;81.90;;;;;;4991776;28;20508;-66
2023/09/20 05:55:14;;;;;;;14.10;4.93;;;15.50;81.80;;;;;;4990582;28;20062;-63
2023/09/20 05:57:43;;;;;;;12.45;4.70;;;15.50;81.90;;;;;;4990883;28;20057;-68
2023/09/20 06:00:18;;;;;;;17.73;5.35;;;15.50;81.90;;;;;;4989461;28;20050;-67
2023/09/20 06:02:44;;;;;;;13.75;5.25;;;15.50;81.90;;;;;;4993392;28;20050;-66
2023/09/20 06:05:14;;;;;;;17.85;5.57;;;15.60;81.90;;;;;;4980348;28;20051;-67
2023/09/20 06:07:40;;;;;;;13.27;4.63;;;15.50;81.90;;;;;;4988781;28;20050;-68
2023/09/20 06:10:09;;;;;;;12.27;4.95;;;15.60;81.90;;;;;;4967980;28;20042;-68
2023/09/20 06:12:35;;;;;;;11.85;4.68;;;15.60;81.80;;;;;;4989425;28;21414;-66
2023/09/20 06:15:02;;;;;;;11.32;4.50;;;15.60;82.00;;;;;;4993966;28;20057;-67
2023/09/20 06:17:34;;;;;;;11.77;4.65;;;15.60;81.80;;;;;;4993319;28;20136;-68
2023/09/20 06:20:00;;;;;;;10.15;4.78;;;15.60;81.80;;;;;;4986742;28;20125;-67
2023/09/20 06:22:29;;;;;;;17.17;5.10;;;15.60;81.80;;;;;;4991312;28;20058;-68
2023/09/20 06:24:58;;;;;;;13.80;4.80;;;15.60;81.80;;;;;;4993472;28;20061;-67
2023/09/20 06:27:30;;;;;;;11.95;4.78;;;15.60;81.50;;;;;;4992788;28;20042;-68
2023/09/20 06:30:05;;;;;;;13.35;4.78;;;15.70;81.50;;;;;;4992921;28;20441;-66
2023/09/20 06:32:33;;;;;;;16.13;5.35;;;15.70;81.50;;;;;;4988429;28;20427;-65
2023/09/20 06:35:04;;;;;;;12.32;4.93;;;15.70;81.40;;;;;;4993094;28;20117;-63
2023/09/20 06:37:30;;;;;;;12.63;4.45;;;15.70;81.20;;;;;;4992186;28;20133;-65
2023/09/20 06:39:56;;;;;;;14.80;5.32;;;15.80;81.20;;;;;;4993105;28;20448;-64
2023/09/20 06:42:25;;;;;;;15.45;5.00;;;15.80;81.20;;;;;;4993569;28;20050;-64
2023/09/20 06:44:52;;;;;;;12.85;4.13;;;15.80;81.20;;;;;;4993246;28;20125;-65
2023/09/20 06:47:18;;;;;;;13.23;4.20;;;15.80;81.00;;;;;;4994923;28;20042;-64
2023/09/20 06:49:44;;;;;;;15.25;4.43;;;15.80;80.90;;;;;;4991489;28;20412;-63
2023/09/20 06:52:11;;;;;;;15.45;4.63;;;15.80;80.80;;;;;;4985352;28;20398;-65
2023/09/20 06:54:38;;;;;;;11.18;4.47;;;15.80;80.80;;;;;;4991573;28;20065;-64
2023/09/20 06:57:05;;;;;;;13.13;4.55;;;15.80;80.70;;;;;;4990254;28;20042;-65
2023/09/20 06:59:31;;;;;;;12.70;4.35;;;15.80;80.90;;;;;;4974811;28;20125;-63
2023/09/20 07:01:59;;;;;;;10.30;3.55;;;15.90;80.80;;;;;;4991504;28;20058;-64
2023/09/20 07:04:25;;;;;;;9.73;3.88;;;15.90;80.70;;;;;;4992071;28;20170;-64
2023/09/20 07:06:55;;;;;;;8.48;3.25;;;16.00;80.60;;;;;;4992422;28;20418;-64
2023/09/20 07:09:22;;;;;;;11.82;4.18;;;16.00;80.60;;;;;;4992239;28;20052;-65
2023/09/20 07:11:48;;;;;;;10.80;4.15;;;16.00;80.70;;;;;;4974693;28;20054;-64
2023/09/20 07:14:20;;;;;;;10.18;3.58;;;16.00;80.50;;;;;;4992135;28;20054;-64
2023/09/20 07:16:52;;;;;;;11.63;3.88;;;16.00;80.60;;;;;;4984784;28;20105;-64
2023/09/20 07:19:20;;;;;;;11.10;3.33;;;16.00;80.60;;;;;;4982746;28;20054;-63
2023/09/20 07:21:45;;;;;;;9.80;3.50;;;16.10;80.50;;;;;;4979626;28;20062;-66
2023/09/20 07:24:12;;;;;;;10.40;4.03;;;16.10;80.50;;;;;;4976993;28;20398;-64
2023/09/20 07:26:44;;;;;;;12.20;3.90;;;16.10;80.50;;;;;;4977513;28;20046;-64
2023/09/20 07:29:12;;;;;;;14.77;4.68;;;16.10;80.60;;;;;;4979552;28;20103;-65
2023/09/20 07:31:38;;;;;;;12.65;4.88;;;16.20;80.40;;;;;;4978586;28;20062;-62
2023/09/20 07:34:04;;;;;;;15.98;4.68;;;16.20;80.50;;;;;;4962090;28;20045;-64
2023/09/20 07:36:37;;;;;;;12.75;4.90;;;16.20;80.70;;;;;;4978763;28;20070;-63
2023/09/20 07:39:08;;;;;;;8.48;3.80;;;16.20;80.40;;;;;;4978652;28;20465;-64
2023/09/20 07:41:34;;;;;;;;;;;16.20;80.30;;;;;;4979750;28;20069;-65
2023/09/20 07:44:00;;;;;;;12.20;4.60;;;16.20;80.50;;;;;;4978300;28;19972;-65
2023/09/20 07:46:26;;;;;;;7.70;3.72;;;16.30;80.50;;;;;;4978455;28;20133;-64
2023/09/20 07:48:52;;;;;;;11.75;4.10;;;16.30;80.50;;;;;;4977964;28;20051;-64
2023/09/20 07:51:28;;;;;;;12.98;4.35;;;16.40;80.60;;;;;;4979614;28;20516;-66
2023/09/20 07:53:54;;;;;;;8.52;3.83;;;16.40;80.50;;;;;;4978152;28;20050;-64
2023/09/20 07:56:20;;;;;;;10.90;3.80;;;16.40;80.20;;;;;;4978879;28;20089;-64
2023/09/20 07:58:46;;;;;;;12.30;4.25;;;16.50;80.50;;;;;;4978609;28;20137;-65
2023/09/20 08:01:12;;;;;;;11.95;4.50;;;16.50;80.20;;;;;;4979037;28;20726;-64
2023/09/20 08:03:43;;;;;;;10.75;4.80;;;16.60;80.30;;;;;;4979653;28;20061;-65
2023/09/20 08:06:09;;;;;;;9.52;4.07;;;16.60;80.10;;;;;;4979627;28;20054;-64
2023/09/20 08:08:35;;;;;;;10.65;4.90;;;16.70;80.30;;;;;;4979298;28;20060;-66
2023/09/20 08:11:01;;;;;;;11.07;4.47;;;16.70;80.10;;;;;;4978731;28;20545;-67
2023/09/20 08:13:26;;;;;;;9.60;4.05;;;16.80;80.10;;;;;;4980644;28;20103;-65
2023/09/20 08:15:52;;;;;;;10.93;4.00;;;16.90;79.80;;;;;;4979945;28;20062;-64
2023/09/20 08:21:04;;;;;;;10.98;4.13;;;17.00;79.70;;;;;;4979642;28;20163;-66
2023/09/20 08:59:54;;;;;;;11.38;4.32;;;17.10;78.50;;;;;;4976577;28;20682;-66
2023/09/20 09:02:24;;;;;;;8.57;3.58;;;17.00;78.40;;;;;;4978096;28;20419;-68
2023/09/20 09:04:56;;;;;;;12.65;4.45;;;17.00;78.50;;;;;;4976625;28;20054;-66
2023/09/20 09:07:23;;;;;;;12.68;4.45;;;17.00;78.70;;;;;;4976323;28;20050;-66
2023/09/20 09:09:52;;;;;;;12.60;4.22;;;17.00;78.70;;;;;;4977288;28;20803;-67
2023/09/20 09:12:18;;;;;;;10.35;4.55;;;17.00;78.90;;;;;;4976108;28;20046;-66
2023/09/20 09:14:47;;;;;;;8.98;3.92;;;17.00;78.90;;;;;;4974544;28;20046;-66
2023/09/20 09:17:14;;;;;;;8.15;4.28;;;17.00;79.10;;;;;;4974514;28;20176;-65
2023/09/20 09:19:40;;;;;;;6.45;4.25;;;17.00;78.90;;;;;;4978301;28;20074;-67
2023/09/20 09:22:07;;;;;;;12.18;5.05;;;17.00;78.90;;;;;;4978607;28;20743;-65
2023/09/20 09:24:44;;;;;;;11.80;4.85;;;17.00;78.90;;;;;;4977935;28;20054;-67
2023/09/20 09:27:10;;;;;;;9.90;4.82;;;17.00;78.50;;;;;;4977223;28;20086;-66
2023/09/20 09:29:37;;;;;;;13.27;4.70;;;17.00;78.70;;;;;;4977808;28;20050;-65
2023/09/20 09:32:04;;;;;;;10.95;5.13;;;17.00;79.00;;;;;;4978829;28;20056;-66
2023/09/20 09:34:30;;;;;;;9.40;5.35;;;17.10;78.80;;;;;;4976548;28;20061;-65
2023/09/20 09:36:56;;;;;;;11.05;4.93;;;17.10;78.80;;;;;;4977805;28;20515;-66
2023/09/20 09:39:24;;;;;;;12.80;4.68;;;17.20;78.80;;;;;;4978371;28;20057;-65
2023/09/20 09:41:51;;;;;;;9.88;5.00;;;17.20;78.50;;;;;;4978609;28;20524;-68
2023/09/20 09:44:17;;;;;;;8.00;4.80;;;17.20;78.60;;;;;;4977305;28;20093;-67
2023/09/20 09:46:43;;;;;;;10.25;4.70;;;17.20;78.70;;;;;;4977073;28;21250;-65
2023/09/20 09:49:11;;;;;;;11.48;5.25;;;17.20;78.70;;;;;;4977056;28;20050;-67
2023/09/20 09:51:52;;;;;;;13.38;5.35;;;17.30;78.70;;;;;;4976141;28;20792;-65
2023/09/20 09:54:21;;;;;;;8.27;4.40;;;17.30;78.60;;;;;;4978666;28;20054;-66
2023/09/20 09:56:48;;;;;;;11.65;5.15;;;17.40;78.70;;;;;;4977006;28;20133;-67
2023/09/20 09:59:14;;;;;;;9.43;4.55;;;17.40;78.50;;;;;;4978158;28;20050;-65
2023/09/20 10:01:40;;;;;;;9.38;4.55;;;17.40;78.50;;;;;;4976778;28;20069;-65
2023/09/20 10:04:10;;;;;;;7.05;5.05;;;17.40;78.50;;;;;;4960860;28;20077;-65
2023/09/20 10:06:55;;;;;;;11.35;5.55;;;17.50;78.40;;;;;;4977116;28;20055;-66
2023/09/20 10:09:27;;;;;;;11.05;4.90;;;17.40;78.50;;;;;;4976727;28;20054;-65
2023/09/20 10:11:53;;;;;;;7.28;4.97;;;17.40;78.40;;;;;;4976743;28;20560;-68
2023/09/20 10:14:22;;;;;;;13.15;5.90;;;17.40;78.60;;;;;;4977089;28;20504;-66
2023/09/20 10:16:49;;;;;;;7.80;5.53;;;17.40;78.30;;;;;;4974647;28;20089;-66
2023/09/20 10:19:16;;;;;;;9.57;5.80;;;17.30;78.10;;;;;;4976355;28;20053;-63
2023/09/20 10:22:21;;;;;;;11.30;5.82;;;17.30;78.40;;;;;;4976773;28;20077;-66
2023/09/20 10:25:00;;;;;;;7.93;5.78;;;17.30;78.20;;;;;;4919932;29;20052;-65
2023/09/20 10:27:31;;;;;;;8.60;5.35;;;17.30;78.10;;;;;;4920669;29;20095;-63
2023/09/20 10:29:59;;;;;;;;;;;17.40;78.50;;;;;;4955302;28;20070;-66
2023/09/20 10:32:52;;;;;;;10.43;6.15;;;17.40;78.40;;;;;;4980459;28;19925;-66
2023/09/20 10:35:33;;;;;;;6.43;4.90;;;17.40;78.30;;;;;;4980769;28;20191;-67
2023/09/20 10:38:23;;;;;;;8.82;5.25;;;17.40;77.90;;;;;;4981357;28;20185;-63
2023/09/20 10:40:50;;;;;;;7.00;5.30;;;17.50;78.00;;;;;;4979489;28;20468;-65
2023/09/20 10:43:19;;;;;;;8.18;4.95;;;17.50;77.90;;;;;;4979815;28;20074;-63
2023/09/20 10:45:54;;;;;;;10.32;5.45;;;17.50;78.00;;;;;;4981300;28;20093;-64
2023/09/20 10:48:24;;;;;;;8.15;5.00;;;17.50;77.90;;;;;;4980364;28;20044;-66
2023/09/20 10:50:52;;;;;;;9.27;5.30;;;17.50;78.10;;;;;;4979228;28;20450;-65
2023/09/20 10:53:18;;;;;;;8.57;5.20;;;17.50;78.30;;;;;;4980107;28;20050;-65
2023/09/20 10:55:47;;;;;;;11.38;6.07;;;17.50;78.40;;;;;;4980061;28;20057;-65
2023/09/20 10:58:14;;;;;;;8.43;5.20;;;17.50;77.90;;;;;;4978700;28;20057;-64
2023/09/20 11:00:41;;;;;;;9.45;5.55;;;17.50;78.10;;;;;;4979678;28;20054;-66
2023/09/20 11:03:08;;;;;;;10.02;5.50;;;17.50;78.30;;;;;;4980601;28;20050;-67
2023/09/20 11:05:38;;;;;;;7.60;4.60;;;17.50;77.90;;;;;;4981389;28;20053;-66
2023/09/20 11:08:08;;;;;;;12.70;5.40;;;17.50;77.90;;;;;;4979733;28;20058;-66
2023/09/20 11:10:35;;;;;;;8.13;5.17;;;17.50;77.90;;;;;;4981841;28;20049;-64
2023/09/20 11:13:05;;;;;;;7.20;5.50;;;17.50;78.00;;;;;;4980492;28;20572;-64
2023/09/20 11:15:31;;;;;;;8.00;5.57;;;17.50;78.00;;;;;;4980712;28;20062;-66
2023/09/20 11:17:57;;;;;;;7.63;4.93;;;17.50;78.00;;;;;;4981505;28;20418;-65
2023/09/20 11:20:24;;;;;;;9.48;5.78;;;17.60;78.10;;;;;;4981109;28;20061;-64
2023/09/20 11:22:51;;;;;;;7.07;4.93;;;17.60;78.10;;;;;;4980152;28;20058;-67
2023/09/20 11:25:17;;;;;;;9.52;5.80;;;17.60;78.10;;;;;;4978395;28;20062;-64
2023/09/20 11:27:43;;;;;;;7.60;4.80;;;17.70;78.10;;;;;;4980239;28;20530;-65
2023/09/20 11:30:10;;;;;;;7.75;5.10;;;17.70;77.90;;;;;;4980284;28;20054;-66
2023/09/20 11:32:39;;;;;;;5.53;4.30;;;17.80;78.20;;;;;;4980637;28;20057;-65
2023/09/20 11:35:06;;;;;;;6.38;4.10;;;17.80;78.10;;;;;;4979663;28;20108;-65
2023/09/20 11:37:35;;;;;;;7.20;4.65;;;17.80;77.60;;;;;;4981307;28;20058;-67
2023/09/20 11:40:01;;;;;;;10.40;4.70;;;17.80;77.80;;;;;;4980620;28;20065;-68
2023/09/20 11:42:35;;;;;;;7.05;3.97;;;17.80;77.80;;;;;;4980723;28;20480;-66
2023/09/20 11:45:08;;;;;;;5.20;3.70;;;17.80;77.80;;;;;;4979700;28;20078;-65
2023/09/20 11:47:37;;;;;;;7.30;3.65;;;17.80;77.80;;;;;;4980287;28;20504;-64
2023/09/20 11:50:04;;;;;;;7.30;4.20;;;17.80;77.70;;;;;;4980359;28;20061;-65
2023/09/20 11:52:31;;;;;;;6.10;3.70;;;18.00;77.50;;;;;;4963426;28;20059;-66
2023/09/20 11:54:59;;;;;;;4.68;3.25;;;18.00;77.30;;;;;;4980178;28;20065;-65
2023/09/20 11:57:26;;;;;;;8.10;4.05;;;18.00;77.50;;;;;;4980332;28;20200;-66
2023/09/20 11:59:54;;;;;;;6.70;3.45;;;18.10;77.50;;;;;;4980105;28;20465;-66
2023/09/20 12:02:20;;;;;;;8.63;3.60;;;18.10;77.40;;;;;;4962428;28;20062;-66
2023/09/20 12:04:51;;;;;;;7.38;3.60;;;18.10;77.20;;;;;;4979392;28;20559;-65
2023/09/20 12:07:17;;;;;;;11.15;3.92;;;18.10;77.20;;;;;;4980118;28;20149;-65
2023/09/20 12:09:43;;;;;;;6.75;3.72;;;18.20;77.30;;;;;;4979420;28;20046;-66
2023/09/20 12:12:10;;;;;;;7.25;4.18;;;18.20;77.40;;;;;;4980606;28;20473;-64
2023/09/20 12:14:37;;;;;;;10.30;4.53;;;18.10;76.80;;;;;;4978637;28;20081;-64
2023/09/20 12:17:04;;;;;;;11.65;5.05;;;18.10;76.80;;;;;;4979546;28;20064;-66
2023/09/20 12:19:30;;;;;;;7.32;4.95;;;18.10;76.80;;;;;;4968456;28;20174;-64
2023/09/20 12:21:55;;;;;;;9.25;5.30;;;18.10;76.80;;;;;;4980035;28;20083;-66
2023/09/20 12:24:24;;;;;;;8.82;5.40;;;18.10;76.70;;;;;;4980572;28;20054;-65
2023/09/20 12:26:51;;;;;;;8.80;5.50;;;18.00;76.50;;;;;;4979026;28;20076;-66
2023/09/20 12:29:17;;;;;;;8.40;6.07;;;18.00;76.90;;;;;;4979258;28;20089;-65
2023/09/20 12:31:47;;;;;;;7.13;5.80;;;18.00;76.90;;;;;;4979655;28;20141;-65
2023/09/20 12:34:13;;;;;;;7.05;5.50;;;18.00;76.70;;;;;;4979815;28;20085;-65
2023/09/20 12:36:39;;;;;;;7.68;5.43;;;18.00;76.10;;;;;;4962885;28;20057;-65
2023/09/20 12:39:08;;;;;;;8.40;5.40;;;18.00;76.40;;;;;;4979615;28;20054;-65
2023/09/20 12:41:37;;;;;;;11.55;6.72;;;18.10;76.20;;;;;;4979552;28;20050;-64
2023/09/20 12:44:03;;;;;;;8.05;5.97;;;18.10;76.50;;;;;;4976563;28;20055;-65
2023/09/20 12:46:31;;;;;;;7.97;5.25;;;18.10;76.70;;;;;;4977589;28;20124;-66
2023/09/20 12:48:57;;;;;;;8.57;5.97;;;18.10;76.50;;;;;;4976823;28;20123;-66
2023/09/20 12:51:24;;;;;;;8.70;5.85;;;18.10;76.50;;;;;;4978759;28;20057;-66
2023/09/20 12:53:50;;;;;;;10.43;6.28;;;18.10;76.60;;;;;;4977212;28;20184;-68
2023/09/20 12:56:16;;;;;;;11.38;5.82;;;18.10;77.10;;;;;;4978532;28;20038;-64
2023/09/20 12:58:42;;;;;;;8.32;5.63;;;18.10;77.10;;;;;;4978104;28;20117;-64
2023/09/20 13:01:10;;;;;;;10.15;5.68;;;18.10;76.90;;;;;;4977064;28;20039;-66
2023/09/20 13:03:40;;;;;;;9.30;5.25;;;18.20;76.90;;;;;;4979154;28;20046;-66
2023/09/20 13:06:07;;;;;;;6.72;4.68;;;18.20;77.00;;;;;;4976862;28;20050;-65
2023/09/20 13:08:33;;;;;;;8.27;4.38;;;18.20;77.00;;;;;;4977703;28;20046;-67
2023/09/20 13:10:58;;;;;;;11.77;4.88;;;18.20;77.20;;;;;;4945769;28;20060;-67
2023/09/20 13:13:24;;;;;;;7.32;4.55;;;18.30;76.90;;;;;;4978594;28;20046;-66
2023/09/20 13:15:50;;;;;;;7.80;3.80;;;18.30;76.60;;;;;;4961176;28;20124;-67
2023/09/20 13:18:16;;;;;;;5.95;3.50;;;18.40;76.70;;;;;;4978583;28;20042;-66
2023/09/20 13:20:42;;;;;;;6.50;4.00;;;18.40;76.70;;;;;;4942120;28;20168;-66
2023/09/20 13:23:09;;;;;;;7.30;4.35;;;18.50;76.50;;;;;;4974897;28;20320;-65
2023/09/20 13:25:35;;;;;;;10.60;4.22;;;18.60;76.50;;;;;;4973911;28;21308;-67
2023/09/20 13:28:01;;;;;;;8.45;3.20;;;18.70;76.30;;;;;;4976712;28;20046;-65